Mary Alice II — WDE3827 — position and weather

sailwx.info

Track history (hours):
 
Tides and Currents Weather Stations Pressure Air Temp Water Temp Dewpoint Dewpoint Depression Visibility Wind Speed Wind Dir Waves Ship Positions

Mary Alice II

Owner: Lakeshore Drive Investment, Rollins, MT. More information available from US FCC via Universal Licensing System and Coast Guard Vessel Documentation Center.

Last reported at 2018-Jun-23 18:00 UTC. Time now 2018-Jun-23 18:06 UTC.
Position N 49°35' W 124°38'.

Length 40 m; draft 2.2 m.

Type: Pleasure craft. MMSI: 367344710.

Date/timePositionNaut miles runAvg speedWind from/ knotsBaromVisibWave heightAir tempDewpointWater temp
2018-Jun-23 18:00N 49°35' W 124°38'1212.6
2018-Jun-23 17:05N 49°27' W 124°25'60 3.0
2018-Jun-22 21:06N 48°53' W 123°09'9 8.8
2018-Jun-22 20:08N 48°44' W 123°08'214.3
2018-Jun-22 19:59N 48°43' W 123°11'4 8.9
2018-Jun-22 19:29N 48°39' W 123°12'0 0.1
2018-Jun-22 18:47N 48°39' W 123°12'412.3
2018-Jun-22 18:30N 48°42' W 123°14'11 8.0
2018-Jun-22 17:05N 48°53' W 123°10'113.1
2018-Jun-22 17:00N 48°53' W 123°11'9 7.8
2018-Jun-22 15:48N 48°44' W 123°07'411.5
2018-Jun-22 15:28N 48°42' W 123°12'4 9.0
2018-Jun-22 15:00N 48°38' W 123°12'0 0.0
2018-Jun-21 21:18N 48°38' W 123°12'412.2
2018-Jun-21 20:57N 48°34' W 123°12'612.6
2018-Jun-21 20:30N 48°28' W 123°09'41 1.4
2018-Jun-20 15:28N 48°16' W 124°08'613.1
2018-Jun-20 15:00N 48°18' W 124°16'713.3
2018-Jun-20 14:29N 48°22' W 124°25'613.1
2018-Jun-20 14:00N 48°24' W 124°33'713.3
2018-Jun-20 13:30N 48°26' W 124°43'611.2
2018-Jun-20 12:58N 48°21' W 124°48'3912.6
2018-Jun-20 09:54N 47°42' W 124°46'3212.6
2018-Jun-20 07:20N 47°10' W 124°36'412.8
2018-Jun-20 06:59N 47°06' W 124°35'1812.8
2018-Jun-20 05:35N 46°48' W 124°31'112.2
2018-Jun-20 05:30N 46°47' W 124°30'712.8
2018-Jun-20 05:00N 46°41' W 124°28'613.0
2018-Jun-20 04:30N 46°35' W 124°27'713.4
2018-Jun-20 04:00N 46°28' W 124°24'1014.1
2018-Jun-20 03:20N 46°19' W 124°21'514.0
2018-Jun-20 03:00N 46°14' W 124°20'713.8
2018-Jun-20 02:30N 46°08' W 124°16'713.2
2018-Jun-20 02:00N 46°02' W 124°13'713.4
2018-Jun-20 01:31N 45°56' W 124°09'713.5
2018-Jun-20 01:00N 45°49' W 124°07'713.3
2018-Jun-20 00:28N 45°42' W 124°08'613.1
2018-Jun-20 00:00N 45°36' W 124°08'713.2
2018-Jun-19 23:30N 45°29' W 124°08'613.1
2018-Jun-19 23:00N 45°23' W 124°08'612.8
2018-Jun-19 22:30N 45°16' W 124°08'612.8
2018-Jun-19 22:00N 45°10' W 124°09'1112.9
2018-Jun-19 21:08N 44°59' W 124°10'412.7
2018-Jun-19 20:51N 44°55' W 124°11'812.6
2018-Jun-19 20:15N 44°47' W 124°11'312.6
2018-Jun-19 20:00N 44°44' W 124°11'2112.2
2018-Jun-19 18:16N 44°24' W 124°16'712.5
2018-Jun-19 17:45N 44°17' W 124°18'312.8
2018-Jun-19 17:30N 44°14' W 124°19'713.1
2018-Jun-19 17:00N 44°08' W 124°21'1112.8
2018-Jun-19 16:07N 43°56' W 124°20'112.6
2018-Jun-19 16:00N 43°55' W 124°21'1012.7
2018-Jun-19 15:13N 43°45' W 124°23'312.7
2018-Jun-19 14:58N 43°42' W 124°24'30712.2
2018-Jun-18 13:44N 38°37' W 123°31'312.1
2018-Jun-18 13:27N 38°34' W 123°29'511.8
2018-Jun-18 13:00N 38°30' W 123°24'611.9
2018-Jun-18 12:30N 38°26' W 123°20'611.4
2018-Jun-18 12:00N 38°21' W 123°15'612.7
2018-Jun-18 11:31N 38°16' W 123°11'612.9
2018-Jun-18 11:01N 38°10' W 123°09'713.5
2018-Jun-18 10:30N 38°03' W 123°07'713.4
2018-Jun-18 10:00N 37°57' W 123°02'713.3
2018-Jun-18 09:30N 37°54' W 122°55'713.1
2018-Jun-18 09:00N 37°50' W 122°49'713.1
2018-Jun-18 08:29N 37°45' W 122°43'712.8
2018-Jun-18 07:57N 37°39' W 122°40'613.2
2018-Jun-18 07:30N 37°33' W 122°39'612.7
2018-Jun-18 07:00N 37°26' W 122°38'612.7
2018-Jun-18 06:30N 37°21' W 122°34'712.8
2018-Jun-18 05:58N 37°14' W 122°31'15012.6
2018-Jun-17 18:03N 35°05' W 120°58'113.0
2018-Jun-17 18:01N 35°04' W 120°57'713.2
2018-Jun-17 17:28N 34°58' W 120°54'613.3
2018-Jun-17 17:01N 34°52' W 120°50'713.2
2018-Jun-17 16:31N 34°46' W 120°47'612.4
2018-Jun-17 16:00N 34°40' W 120°45'610.9
2018-Jun-17 15:29N 34°35' W 120°42'510.5
2018-Jun-17 15:00N 34°31' W 120°38'5 9.9
2018-Jun-17 14:31N 34°27' W 120°34'5 9.2
2018-Jun-17 14:00N 34°25' W 120°30'5 9.5
2018-Jun-17 13:30N 34°23' W 120°24'510.1
2018-Jun-17 12:58N 34°21' W 120°18'5 9.7
2018-Jun-17 12:29N 34°20' W 120°13'5 9.8
2018-Jun-17 11:59N 34°18' W 120°07'5 9.6
2018-Jun-17 11:28N 34°17' W 120°01'510.3
2018-Jun-17 10:58N 34°15' W 119°55'510.5
2018-Jun-17 10:30N 34°14' W 119°50'611.5
2018-Jun-17 10:00N 34°12' W 119°43'611.8
2018-Jun-17 09:29N 34°10' W 119°36'612.1
2018-Jun-17 09:00N 34°08' W 119°29'612.1
2018-Jun-17 08:29N 34°07' W 119°22'612.2
2018-Jun-17 07:59N 34°05' W 119°15'611.9
2018-Jun-17 07:30N 34°02' W 119°09'611.6
2018-Jun-17 07:00N 33°59' W 119°03'611.5
2018-Jun-17 06:30N 33°57' W 118°57'611.3
2018-Jun-17 06:01N 33°54' W 118°51'611.6
2018-Jun-17 05:30N 33°51' W 118°45'2011.5
2018-Jun-17 03:46N 33°42' W 118°23'311.4
2018-Jun-17 03:30N 33°40' W 118°20'510.9
2018-Jun-17 03:00N 33°39' W 118°14'611.2
2018-Jun-17 02:30N 33°38' W 118°07'610.9
2018-Jun-17 02:00N 33°37' W 118°01'  
2018-Jun-14 10:58N 33°37' W 117°55'0 0.0
2018-Jun-14 08:10N 33°37' W 117°55'0 0.0
2018-Jun-14 07:58N 33°37' W 117°55'0 0.0
2018-Jun-14 07:28N 33°37' W 117°55'0 0.0
2018-Jun-14 06:58N 33°37' W 117°55'0 0.0
2018-Jun-14 06:28N 33°37' W 117°55'0 0.0
2018-Jun-14 04:52N 33°37' W 117°55'0 0.0
2018-Jun-14 01:34N 33°37' W 117°55'0 0.0
2018-Jun-14 01:16N 33°37' W 117°55'0 0.0
2018-Jun-14 00:58N 33°37' W 117°55'0 0.0
2018-Jun-14 00:10N 33°37' W 117°55'0 0.0
2018-Jun-13 23:58N 33°37' W 117°55'0 0.0
2018-Jun-13 23:28N 33°37' W 117°55'0 0.0
2018-Jun-13 22:58N 33°37' W 117°55'  
Track history (hours):
 
Tides and Currents Weather Stations Pressure Air Temp Water Temp Dewpoint Dewpoint Depression Visibility Wind Speed Wind Dir Waves Ship Positions

Mary Alice II

Owner: Lakeshore Drive Investment, Rollins, MT. More information available from US FCC via Universal Licensing System and Coast Guard Vessel Documentation Center.

Last reported at 2018-Jun-23 18:00 UTC. Time now 2018-Jun-23 18:06 UTC.
Position N 49°35' W 124°38'.

Length 40 m; draft 2.2 m.

Type: Pleasure craft. MMSI: 367344710.

Date/timePositionNaut miles runAvg speedWind from/ knotsBaromVisibWave heightAir tempDewpointWater temp
2018-Jun-23 18:00N 49°35' W 124°38'1212.6
2018-Jun-23 17:05N 49°27' W 124°25'60 3.0
2018-Jun-22 21:06N 48°53' W 123°09'9 8.8
2018-Jun-22 20:08N 48°44' W 123°08'214.3
2018-Jun-22 19:59N 48°43' W 123°11'4 8.9
2018-Jun-22 19:29N 48°39' W 123°12'0 0.1
2018-Jun-22 18:47N 48°39' W 123°12'412.3
2018-Jun-22 18:30N 48°42' W 123°14'11 8.0
2018-Jun-22 17:05N 48°53' W 123°10'113.1
2018-Jun-22 17:00N 48°53' W 123°11'9 7.8
2018-Jun-22 15:48N 48°44' W 123°07'411.5
2018-Jun-22 15:28N 48°42' W 123°12'4 9.0
2018-Jun-22 15:00N 48°38' W 123°12'0 0.0
2018-Jun-21 21:18N 48°38' W 123°12'412.2
2018-Jun-21 20:57N 48°34' W 123°12'612.6
2018-Jun-21 20:30N 48°28' W 123°09'41 1.4
2018-Jun-20 15:28N 48°16' W 124°08'613.1
2018-Jun-20 15:00N 48°18' W 124°16'713.3
2018-Jun-20 14:29N 48°22' W 124°25'613.1
2018-Jun-20 14:00N 48°24' W 124°33'713.3
2018-Jun-20 13:30N 48°26' W 124°43'611.2
2018-Jun-20 12:58N 48°21' W 124°48'3912.6
2018-Jun-20 09:54N 47°42' W 124°46'3212.6
2018-Jun-20 07:20N 47°10' W 124°36'412.8
2018-Jun-20 06:59N 47°06' W 124°35'1812.8
2018-Jun-20 05:35N 46°48' W 124°31'112.2
2018-Jun-20 05:30N 46°47' W 124°30'712.8
2018-Jun-20 05:00N 46°41' W 124°28'613.0
2018-Jun-20 04:30N 46°35' W 124°27'713.4
2018-Jun-20 04:00N 46°28' W 124°24'1014.1
2018-Jun-20 03:20N 46°19' W 124°21'514.0
2018-Jun-20 03:00N 46°14' W 124°20'713.8
2018-Jun-20 02:30N 46°08' W 124°16'713.2
2018-Jun-20 02:00N 46°02' W 124°13'713.4
2018-Jun-20 01:31N 45°56' W 124°09'713.5
2018-Jun-20 01:00N 45°49' W 124°07'713.3
2018-Jun-20 00:28N 45°42' W 124°08'613.1
2018-Jun-20 00:00N 45°36' W 124°08'713.2
2018-Jun-19 23:30N 45°29' W 124°08'613.1
2018-Jun-19 23:00N 45°23' W 124°08'612.8
2018-Jun-19 22:30N 45°16' W 124°08'612.8
2018-Jun-19 22:00N 45°10' W 124°09'1112.9
2018-Jun-19 21:08N 44°59' W 124°10'412.7
2018-Jun-19 20:51N 44°55' W 124°11'812.6
2018-Jun-19 20:15N 44°47' W 124°11'312.6
2018-Jun-19 20:00N 44°44' W 124°11'2112.2
2018-Jun-19 18:16N 44°24' W 124°16'712.5
2018-Jun-19 17:45N 44°17' W 124°18'312.8
2018-Jun-19 17:30N 44°14' W 124°19'713.1
2018-Jun-19 17:00N 44°08' W 124°21'1112.8
2018-Jun-19 16:07N 43°56' W 124°20'112.6
2018-Jun-19 16:00N 43°55' W 124°21'1012.7
2018-Jun-19 15:13N 43°45' W 124°23'312.7
2018-Jun-19 14:58N 43°42' W 124°24'30712.2
2018-Jun-18 13:44N 38°37' W 123°31'312.1
2018-Jun-18 13:27N 38°34' W 123°29'511.8
2018-Jun-18 13:00N 38°30' W 123°24'611.9
2018-Jun-18 12:30N 38°26' W 123°20'611.4
2018-Jun-18 12:00N 38°21' W 123°15'612.7
2018-Jun-18 11:31N 38°16' W 123°11'612.9
2018-Jun-18 11:01N 38°10' W 123°09'713.5
2018-Jun-18 10:30N 38°03' W 123°07'713.4
2018-Jun-18 10:00N 37°57' W 123°02'713.3
2018-Jun-18 09:30N 37°54' W 122°55'713.1
2018-Jun-18 09:00N 37°50' W 122°49'713.1
2018-Jun-18 08:29N 37°45' W 122°43'712.8
2018-Jun-18 07:57N 37°39' W 122°40'613.2
2018-Jun-18 07:30N 37°33' W 122°39'612.7
2018-Jun-18 07:00N 37°26' W 122°38'612.7
2018-Jun-18 06:30N 37°21' W 122°34'712.8
2018-Jun-18 05:58N 37°14' W 122°31'15012.6
2018-Jun-17 18:03N 35°05' W 120°58'113.0
2018-Jun-17 18:01N 35°04' W 120°57'713.2
2018-Jun-17 17:28N 34°58' W 120°54'613.3
2018-Jun-17 17:01N 34°52' W 120°50'713.2
2018-Jun-17 16:31N 34°46' W 120°47'612.4
2018-Jun-17 16:00N 34°40' W 120°45'610.9
2018-Jun-17 15:29N 34°35' W 120°42'510.5
2018-Jun-17 15:00N 34°31' W 120°38'5 9.9
2018-Jun-17 14:31N 34°27' W 120°34'5 9.2
2018-Jun-17 14:00N 34°25' W 120°30'5 9.5
2018-Jun-17 13:30N 34°23' W 120°24'510.1
2018-Jun-17 12:58N 34°21' W 120°18'5 9.7
2018-Jun-17 12:29N 34°20' W 120°13'5 9.8
2018-Jun-17 11:59N 34°18' W 120°07'5 9.6
2018-Jun-17 11:28N 34°17' W 120°01'510.3
2018-Jun-17 10:58N 34°15' W 119°55'510.5
2018-Jun-17 10:30N 34°14' W 119°50'611.5
2018-Jun-17 10:00N 34°12' W 119°43'611.8
2018-Jun-17 09:29N 34°10' W 119°36'612.1
2018-Jun-17 09:00N 34°08' W 119°29'612.1
2018-Jun-17 08:29N 34°07' W 119°22'612.2
2018-Jun-17 07:59N 34°05' W 119°15'611.9
2018-Jun-17 07:30N 34°02' W 119°09'611.6
2018-Jun-17 07:00N 33°59' W 119°03'611.5
2018-Jun-17 06:30N 33°57' W 118°57'611.3
2018-Jun-17 06:01N 33°54' W 118°51'611.6
2018-Jun-17 05:30N 33°51' W 118°45'2011.5
2018-Jun-17 03:46N 33°42' W 118°23'311.4
2018-Jun-17 03:30N 33°40' W 118°20'510.9
2018-Jun-17 03:00N 33°39' W 118°14'611.2
2018-Jun-17 02:30N 33°38' W 118°07'610.9
2018-Jun-17 02:00N 33°37' W 118°01'  
2018-Jun-14 10:58N 33°37' W 117°55'0 0.0
2018-Jun-14 08:10N 33°37' W 117°55'0 0.0
2018-Jun-14 07:58N 33°37' W 117°55'0 0.0
2018-Jun-14 07:28N 33°37' W 117°55'0 0.0
2018-Jun-14 06:58N 33°37' W 117°55'0 0.0
2018-Jun-14 06:28N 33°37' W 117°55'0 0.0
2018-Jun-14 04:52N 33°37' W 117°55'0 0.0
2018-Jun-14 01:34N 33°37' W 117°55'0 0.0
2018-Jun-14 01:16N 33°37' W 117°55'0 0.0
2018-Jun-14 00:58N 33°37' W 117°55'0 0.0
2018-Jun-14 00:10N 33°37' W 117°55'0 0.0
2018-Jun-13 23:58N 33°37' W 117°55'0 0.0
2018-Jun-13 23:28N 33°37' W 117°55'0 0.0
2018-Jun-13 22:58N 33°37' W 117°55'  

Dump ship's entire track history